sensor_id;sensor_type;location;lat;lon;timestamp;temperature;humidity
65582;DHT22;52231;40.090;18.348;2023-06-26T00:01:29;22.30;82.60
65582;DHT22;52231;40.090;18.348;2023-06-26T00:03:59;22.30;82.50
65582;DHT22;52231;40.090;18.348;2023-06-26T00:06:28;22.30;82.40
65582;DHT22;52231;40.090;18.348;2023-06-26T00:08:56;22.30;82.30
65582;DHT22;52231;40.090;18.348;2023-06-26T00:11:26;22.30;82.20
65582;DHT22;52231;40.090;18.348;2023-06-26T00:13:55;22.30;82.30
65582;DHT22;52231;40.090;18.348;2023-06-26T00:16:23;22.20;82.20
65582;DHT22;52231;40.090;18.348;2023-06-26T00:18:53;22.20;82.10
65582;DHT22;52231;40.090;18.348;2023-06-26T00:21:21;22.20;82.00
65582;DHT22;52231;40.090;18.348;2023-06-26T00:23:50;22.10;82.00
65582;DHT22;52231;40.090;18.348;2023-06-26T00:26:18;22.20;81.90
65582;DHT22;52231;40.090;18.348;2023-06-26T00:28:46;22.10;81.80
65582;DHT22;52231;40.090;18.348;2023-06-26T00:31:15;22.10;81.80
65582;DHT22;52231;40.090;18.348;2023-06-26T00:33:43;22.10;81.70
65582;DHT22;52231;40.090;18.348;2023-06-26T00:36:11;22.10;81.70
65582;DHT22;52231;40.090;18.348;2023-06-26T00:38:40;22.10;81.50
65582;DHT22;52231;40.090;18.348;2023-06-26T00:41:08;22.00;81.50
65582;DHT22;52231;40.090;18.348;2023-06-26T00:43:40;22.00;81.50
65582;DHT22;52231;40.090;18.348;2023-06-26T00:46:13;22.00;81.50
65582;DHT22;52231;40.090;18.348;2023-06-26T00:48:42;22.00;81.30
65582;DHT22;52231;40.090;18.348;2023-06-26T00:51:12;22.00;81.30
65582;DHT22;52231;40.090;18.348;2023-06-26T00:53:42;22.00;81.30
65582;DHT22;52231;40.090;18.348;2023-06-26T00:56:11;22.00;81.30
65582;DHT22;52231;40.090;18.348;2023-06-26T00:58:40;22.00;81.20
65582;DHT22;52231;40.090;18.348;2023-06-26T01:01:08;22.00;81.10
65582;DHT22;52231;40.090;18.348;2023-06-26T01:03:45;22.00;81.00
65582;DHT22;52231;40.090;18.348;2023-06-26T01:06:24;22.00;81.00
65582;DHT22;52231;40.090;18.348;2023-06-26T01:08:53;22.00;80.90
65582;DHT22;52231;40.090;18.348;2023-06-26T01:11:22;22.00;80.90
65582;DHT22;52231;40.090;18.348;2023-06-26T01:13:51;21.90;81.10
65582;DHT22;52231;40.090;18.348;2023-06-26T01:16:23;22.00;80.90
65582;DHT22;52231;40.090;18.348;2023-06-26T01:18:52;21.90;81.00
65582;DHT22;52231;40.090;18.348;2023-06-26T01:21:21;21.90;80.90
65582;DHT22;52231;40.090;18.348;2023-06-26T01:24:02;21.90;81.00
65582;DHT22;52231;40.090;18.348;2023-06-26T01:26:34;21.90;81.10
65582;DHT22;52231;40.090;18.348;2023-06-26T01:29:04;21.90;81.10
65582;DHT22;52231;40.090;18.348;2023-06-26T01:31:35;21.90;81.10
65582;DHT22;52231;40.090;18.348;2023-06-26T01:34:04;22.00;81.00
65582;DHT22;52231;40.090;18.348;2023-06-26T01:36:32;21.90;81.00
65582;DHT22;52231;40.090;18.348;2023-06-26T01:39:01;21.90;81.00
65582;DHT22;52231;40.090;18.348;2023-06-26T01:41:29;21.90;81.10
65582;DHT22;52231;40.090;18.348;2023-06-26T01:47:01;21.90;81.10
65582;DHT22;52231;40.090;18.348;2023-06-26T01:53:02;21.90;81.10
65582;DHT22;52231;40.090;18.348;2023-06-26T01:55:45;21.90;81.10
65582;DHT22;52231;40.090;18.348;2023-06-26T01:58:17;21.90;81.00
65582;DHT22;52231;40.090;18.348;2023-06-26T02:00:47;21.90;81.00
65582;DHT22;52231;40.090;18.348;2023-06-26T02:03:16;21.80;81.00
65582;DHT22;52231;40.090;18.348;2023-06-26T02:05:44;21.80;80.90
65582;DHT22;52231;40.090;18.348;2023-06-26T02:08:13;21.80;81.00
65582;DHT22;52231;40.090;18.348;2023-06-26T02:10:48;21.80;80.90
65582;DHT22;52231;40.090;18.348;2023-06-26T02:13:17;21.80;81.00
65582;DHT22;52231;40.090;18.348;2023-06-26T02:15:46;21.80;81.10
65582;DHT22;52231;40.090;18.348;2023-06-26T02:18:14;21.80;81.10
65582;DHT22;52231;40.090;18.348;2023-06-26T02:20:42;21.80;81.10
65582;DHT22;52231;40.090;18.348;2023-06-26T02:23:12;21.80;81.00
65582;DHT22;52231;40.090;18.348;2023-06-26T02:25:40;21.70;81.00
65582;DHT22;52231;40.090;18.348;2023-06-26T02:28:10;21.70;80.80
65582;DHT22;52231;40.090;18.348;2023-06-26T02:30:38;21.70;80.70
65582;DHT22;52231;40.090;18.348;2023-06-26T02:33:06;21.70;80.50
65582;DHT22;52231;40.090;18.348;2023-06-26T02:35:34;21.70;80.30
65582;DHT22;52231;40.090;18.348;2023-06-26T02:38:02;21.70;80.10
65582;DHT22;52231;40.090;18.348;2023-06-26T02:40:31;21.70;79.90
65582;DHT22;52231;40.090;18.348;2023-06-26T02:42:59;21.70;79.80
65582;DHT22;52231;40.090;18.348;2023-06-26T02:45:28;21.70;79.50
65582;DHT22;52231;40.090;18.348;2023-06-26T02:47:56;21.60;79.30
65582;DHT22;52231;40.090;18.348;2023-06-26T02:50:25;21.60;79.10
65582;DHT22;52231;40.090;18.348;2023-06-26T02:53:08;21.60;78.90
65582;DHT22;52231;40.090;18.348;2023-06-26T02:55:39;21.60;78.80
65582;DHT22;52231;40.090;18.348;2023-06-26T02:58:07;21.60;78.50
65582;DHT22;52231;40.090;18.348;2023-06-26T03:00:37;21.60;78.40
65582;DHT22;52231;40.090;18.348;2023-06-26T03:03:13;21.60;78.10
65582;DHT22;52231;40.090;18.348;2023-06-26T03:05:41;21.60;78.00
65582;DHT22;52231;40.090;18.348;2023-06-26T03:08:10;21.60;78.00
65582;DHT22;52231;40.090;18.348;2023-06-26T03:10:38;21.60;78.00
65582;DHT22;52231;40.090;18.348;2023-06-26T03:13:07;21.50;78.00
65582;DHT22;52231;40.090;18.348;2023-06-26T03:15:35;21.60;77.80
65582;DHT22;52231;40.090;18.348;2023-06-26T03:18:03;21.50;77.80
65582;DHT22;52231;40.090;18.348;2023-06-26T03:20:31;21.60;77.70
65582;DHT22;52231;40.090;18.348;2023-06-26T03:23:00;21.50;77.90
65582;DHT22;52231;40.090;18.348;2023-06-26T03:25:28;21.60;77.70
65582;DHT22;52231;40.090;18.348;2023-06-26T03:28:17;21.60;77.90
65582;DHT22;52231;40.090;18.348;2023-06-26T03:30:47;21.60;77.80
65582;DHT22;52231;40.090;18.348;2023-06-26T03:33:16;21.60;77.80
65582;DHT22;52231;40.090;18.348;2023-06-26T03:35:45;21.70;77.80
65582;DHT22;52231;40.090;18.348;2023-06-26T03:38:14;21.70;77.50
65582;DHT22;52231;40.090;18.348;2023-06-26T03:40:44;21.80;77.30
65582;DHT22;52231;40.090;18.348;2023-06-26T03:43:12;21.80;77.20
65582;DHT22;52231;40.090;18.348;2023-06-26T03:45:46;21.90;76.90
65582;DHT22;52231;40.090;18.348;2023-06-26T03:48:15;22.00;76.80
65582;DHT22;52231;40.090;18.348;2023-06-26T03:50:44;22.00;76.50
65582;DHT22;52231;40.090;18.348;2023-06-26T03:53:12;22.10;76.40
65582;DHT22;52231;40.090;18.348;2023-06-26T03:55:41;22.20;76.10
65582;DHT22;52231;40.090;18.348;2023-06-26T03:58:10;22.40;75.60
65582;DHT22;52231;40.090;18.348;2023-06-26T04:00:38;22.50;75.30
65582;DHT22;52231;40.090;18.348;2023-06-26T04:03:06;22.70;74.90
65582;DHT22;52231;40.090;18.348;2023-06-26T04:05:34;22.90;74.40
65582;DHT22;52231;40.090;18.348;2023-06-26T04:08:02;23.20;73.80
65582;DHT22;52231;40.090;18.348;2023-06-26T04:10:30;23.60;72.90
65582;DHT22;52231;40.090;18.348;2023-06-26T04:12:58;24.10;71.40
65582;DHT22;52231;40.090;18.348;2023-06-26T04:15:27;24.50;69.40
65582;DHT22;52231;40.090;18.348;2023-06-26T04:17:55;25.00;67.90
65582;DHT22;52231;40.090;18.348;2023-06-26T04:20:23;25.50;66.70
65582;DHT22;52231;40.090;18.348;2023-06-26T04:22:51;26.00;65.50
65582;DHT22;52231;40.090;18.348;2023-06-26T04:25:19;26.50;63.20
65582;DHT22;52231;40.090;18.348;2023-06-26T04:27:47;26.80;61.90
65582;DHT22;52231;40.090;18.348;2023-06-26T04:30:15;27.20;60.90
65582;DHT22;52231;40.090;18.348;2023-06-26T04:32:44;27.40;59.50
65582;DHT22;52231;40.090;18.348;2023-06-26T04:35:12;27.80;59.20
65582;DHT22;52231;40.090;18.348;2023-06-26T04:37:40;28.00;57.60
65582;DHT22;52231;40.090;18.348;2023-06-26T04:40:09;28.30;57.50
65582;DHT22;52231;40.090;18.348;2023-06-26T04:42:39;28.80;56.20
65582;DHT22;52231;40.090;18.348;2023-06-26T04:45:07;29.20;54.90
65582;DHT22;52231;40.090;18.348;2023-06-26T04:47:36;29.30;54.30
65582;DHT22;52231;40.090;18.348;2023-06-26T04:50:05;29.30;53.70
65582;DHT22;52231;40.090;18.348;2023-06-26T04:52:34;29.50;53.60
65582;DHT22;52231;40.090;18.348;2023-06-26T04:55:03;29.80;52.70
65582;DHT22;52231;40.090;18.348;2023-06-26T04:57:31;29.80;52.60
65582;DHT22;52231;40.090;18.348;2023-06-26T05:00:00;30.10;52.00
65582;DHT22;52231;40.090;18.348;2023-06-26T05:02:28;30.20;51.80
65582;DHT22;52231;40.090;18.348;2023-06-26T05:04:57;30.30;51.30
65582;DHT22;52231;40.090;18.348;2023-06-26T05:07:25;30.30;51.50
65582;DHT22;52231;40.090;18.348;2023-06-26T05:09:53;30.20;51.20
65582;DHT22;52231;40.090;18.348;2023-06-26T05:12:21;29.80;51.90
65582;DHT22;52231;40.090;18.348;2023-06-26T05:14:50;29.80;52.20
65582;DHT22;52231;40.090;18.348;2023-06-26T05:17:18;29.70;52.70
65582;DHT22;52231;40.090;18.348;2023-06-26T05:19:46;29.70;52.50
65582;DHT22;52231;40.090;18.348;2023-06-26T05:22:16;29.70;52.80
65582;DHT22;52231;40.090;18.348;2023-06-26T05:24:46;29.40;53.10
65582;DHT22;52231;40.090;18.348;2023-06-26T05:27:15;29.50;53.20
65582;DHT22;52231;40.090;18.348;2023-06-26T05:29:49;29.80;52.80
65582;DHT22;52231;40.090;18.348;2023-06-26T05:32:18;29.80;52.60
65582;DHT22;52231;40.090;18.348;2023-06-26T05:34:49;30.10;51.80
65582;DHT22;52231;40.090;18.348;2023-06-26T05:37:22;30.30;51.10
65582;DHT22;52231;40.090;18.348;2023-06-26T05:39:51;30.30;51.10
65582;DHT22;52231;40.090;18.348;2023-06-26T05:42:19;30.10;51.50
65582;DHT22;52231;40.090;18.348;2023-06-26T05:44:47;30.20;51.70
65582;DHT22;52231;40.090;18.348;2023-06-26T05:47:16;30.30;51.40
65582;DHT22;52231;40.090;18.348;2023-06-26T05:49:44;30.60;50.20
65582;DHT22;52231;40.090;18.348;2023-06-26T05:52:13;30.50;50.20
65582;DHT22;52231;40.090;18.348;2023-06-26T05:54:41;30.40;50.70
65582;DHT22;52231;40.090;18.348;2023-06-26T05:57:10;30.30;51.00
65582;DHT22;52231;40.090;18.348;2023-06-26T05:59:40;30.40;51.40
65582;DHT22;52231;40.090;18.348;2023-06-26T06:02:09;30.60;50.80
65582;DHT22;52231;40.090;18.348;2023-06-26T06:04:37;30.30;51.40
65582;DHT22;52231;40.090;18.348;2023-06-26T06:07:06;30.40;51.40
65582;DHT22;52231;40.090;18.348;2023-06-26T06:09:34;30.50;51.50
65582;DHT22;52231;40.090;18.348;2023-06-26T06:12:03;30.80;50.90
65582;DHT22;52231;40.090;18.348;2023-06-26T06:14:33;30.80;50.70
65582;DHT22;52231;40.090;18.348;2023-06-26T06:17:01;31.00;50.30
65582;DHT22;52231;40.090;18.348;2023-06-26T06:19:29;31.10;50.30
65582;DHT22;52231;40.090;18.348;2023-06-26T06:21:58;31.20;49.70
65582;DHT22;52231;40.090;18.348;2023-06-26T06:24:26;31.20;49.80
65582;DHT22;52231;40.090;18.348;2023-06-26T06:26:54;31.20;50.00
65582;DHT22;52231;40.090;18.348;2023-06-26T06:29:23;31.20;49.80
65582;DHT22;52231;40.090;18.348;2023-06-26T06:31:51;31.20;49.80
65582;DHT22;52231;40.090;18.348;2023-06-26T06:34:19;31.10;50.30
65582;DHT22;52231;40.090;18.348;2023-06-26T06:36:47;31.30;50.10
65582;DHT22;52231;40.090;18.348;2023-06-26T06:39:16;31.50;49.20
65582;DHT22;52231;40.090;18.348;2023-06-26T06:41:44;31.30;49.40
65582;DHT22;52231;40.090;18.348;2023-06-26T06:44:12;31.40;49.50
65582;DHT22;52231;40.090;18.348;2023-06-26T06:46:41;31.50;49.50
65582;DHT22;52231;40.090;18.348;2023-06-26T06:49:09;31.60;48.40
65582;DHT22;52231;40.090;18.348;2023-06-26T06:51:37;31.60;48.70
65582;DHT22;52231;40.090;18.348;2023-06-26T06:54:05;31.70;48.70
65582;DHT22;52231;40.090;18.348;2023-06-26T06:56:33;31.60;48.70
65582;DHT22;52231;40.090;18.348;2023-06-26T06:59:02;31.50;49.00
65582;DHT22;52231;40.090;18.348;2023-06-26T07:01:30;31.70;48.70
65582;DHT22;52231;40.090;18.348;2023-06-26T07:03:59;31.60;48.80
65582;DHT22;52231;40.090;18.348;2023-06-26T07:06:27;31.50;49.50
65582;DHT22;52231;40.090;18.348;2023-06-26T07:08:55;31.60;49.50
65582;DHT22;52231;40.090;18.348;2023-06-26T07:11:23;31.70;49.70
65582;DHT22;52231;40.090;18.348;2023-06-26T07:13:51;31.80;48.40
65582;DHT22;52231;40.090;18.348;2023-06-26T07:16:20;31.90;48.70
65582;DHT22;52231;40.090;18.348;2023-06-26T07:18:48;32.10;48.60
65582;DHT22;52231;40.090;18.348;2023-06-26T07:21:17;32.00;47.90
65582;DHT22;52231;40.090;18.348;2023-06-26T07:23:46;32.10;48.40
65582;DHT22;52231;40.090;18.348;2023-06-26T07:26:14;32.30;48.30
65582;DHT22;52231;40.090;18.348;2023-06-26T07:28:44;32.50;47.90
65582;DHT22;52231;40.090;18.348;2023-06-26T07:31:12;32.80;47.50
65582;DHT22;52231;40.090;18.348;2023-06-26T07:33:41;32.80;46.80
65582;DHT22;52231;40.090;18.348;2023-06-26T07:36:09;32.60;46.80
65582;DHT22;52231;40.090;18.348;2023-06-26T07:38:37;32.20;47.90
65582;DHT22;52231;40.090;18.348;2023-06-26T07:41:06;32.30;47.50
65582;DHT22;52231;40.090;18.348;2023-06-26T07:43:34;32.40;47.80
65582;DHT22;52231;40.090;18.348;2023-06-26T07:46:03;32.30;47.80
65582;DHT22;52231;40.090;18.348;2023-06-26T07:48:31;32.40;47.70
65582;DHT22;52231;40.090;18.348;2023-06-26T07:50:59;32.60;47.80
65582;DHT22;52231;40.090;18.348;2023-06-26T07:53:27;32.70;47.00
65582;DHT22;52231;40.090;18.348;2023-06-26T07:55:55;32.80;46.70
65582;DHT22;52231;40.090;18.348;2023-06-26T07:58:23;32.90;47.00
65582;DHT22;52231;40.090;18.348;2023-06-26T08:00:53;33.00;46.10
65582;DHT22;52231;40.090;18.348;2023-06-26T08:03:22;32.80;46.80
65582;DHT22;52231;40.090;18.348;2023-06-26T08:05:56;32.90;46.30
65582;DHT22;52231;40.090;18.348;2023-06-26T08:08:25;32.90;46.60
65582;DHT22;52231;40.090;18.348;2023-06-26T08:10:53;32.80;46.70
65582;DHT22;52231;40.090;18.348;2023-06-26T08:13:21;32.90;46.50
65582;DHT22;52231;40.090;18.348;2023-06-26T08:15:49;33.10;46.30
65582;DHT22;52231;40.090;18.348;2023-06-26T08:18:18;33.20;46.60
65582;DHT22;52231;40.090;18.348;2023-06-26T08:20:48;33.50;45.60
65582;DHT22;52231;40.090;18.348;2023-06-26T08:23:17;33.40;46.00
65582;DHT22;52231;40.090;18.348;2023-06-26T08:25:45;33.20;46.00
65582;DHT22;52231;40.090;18.348;2023-06-26T08:28:15;33.30;46.00
65582;DHT22;52231;40.090;18.348;2023-06-26T08:30:44;33.40;45.80
65582;DHT22;52231;40.090;18.348;2023-06-26T08:33:13;33.30;45.90
65582;DHT22;52231;40.090;18.348;2023-06-26T08:35:42;33.30;45.60
65582;DHT22;52231;40.090;18.348;2023-06-26T08:38:11;33.50;46.00
65582;DHT22;52231;40.090;18.348;2023-06-26T08:40:40;33.50;45.00
65582;DHT22;52231;40.090;18.348;2023-06-26T08:43:09;33.80;45.10
65582;DHT22;52231;40.090;18.348;2023-06-26T08:45:37;33.60;44.50
65582;DHT22;52231;40.090;18.348;2023-06-26T08:48:10;33.90;44.40
65582;DHT22;52231;40.090;18.348;2023-06-26T08:50:39;34.00;44.30
65582;DHT22;52231;40.090;18.348;2023-06-26T08:53:19;33.90;44.20
65582;DHT22;52231;40.090;18.348;2023-06-26T08:55:50;33.90;44.60
65582;DHT22;52231;40.090;18.348;2023-06-26T08:58:20;33.70;44.20
65582;DHT22;52231;40.090;18.348;2023-06-26T09:00:49;33.60;44.20
65582;DHT22;52231;40.090;18.348;2023-06-26T09:03:17;33.40;44.70
65582;DHT22;52231;40.090;18.348;2023-06-26T09:05:46;33.60;44.40
65582;DHT22;52231;40.090;18.348;2023-06-26T09:08:14;33.80;44.60
65582;DHT22;52231;40.090;18.348;2023-06-26T09:10:44;34.20;44.20
65582;DHT22;52231;40.090;18.348;2023-06-26T09:13:14;34.10;44.20
65582;DHT22;52231;40.090;18.348;2023-06-26T09:15:47;34.30;44.10
65582;DHT22;52231;40.090;18.348;2023-06-26T09:18:17;34.20;43.70
65582;DHT22;52231;40.090;18.348;2023-06-26T09:20:48;34.70;42.70
65582;DHT22;52231;40.090;18.348;2023-06-26T09:23:16;34.80;42.70
65582;DHT22;52231;40.090;18.348;2023-06-26T09:25:47;34.60;42.80
65582;DHT22;52231;40.090;18.348;2023-06-26T09:28:15;34.50;43.10
65582;DHT22;52231;40.090;18.348;2023-06-26T09:30:45;34.50;42.80
65582;DHT22;52231;40.090;18.348;2023-06-26T09:33:20;34.70;42.80
65582;DHT22;52231;40.090;18.348;2023-06-26T09:35:48;35.00;42.40
65582;DHT22;52231;40.090;18.348;2023-06-26T09:38:17;34.80;42.40
65582;DHT22;52231;40.090;18.348;2023-06-26T09:40:46;34.90;42.40
65582;DHT22;52231;40.090;18.348;2023-06-26T09:43:14;34.80;42.50
65582;DHT22;52231;40.090;18.348;2023-06-26T09:45:42;35.10;42.10
65582;DHT22;52231;40.090;18.348;2023-06-26T09:48:13;35.30;41.30
65582;DHT22;52231;40.090;18.348;2023-06-26T09:50:42;35.40;40.80
65582;DHT22;52231;40.090;18.348;2023-06-26T09:53:15;35.50;41.00
65582;DHT22;52231;40.090;18.348;2023-06-26T09:55:43;35.40;40.80
65582;DHT22;52231;40.090;18.348;2023-06-26T09:58:20;35.30;41.70
65582;DHT22;52231;40.090;18.348;2023-06-26T10:00:49;35.30;40.80
65582;DHT22;52231;40.090;18.348;2023-06-26T10:03:17;35.20;41.10
65582;DHT22;52231;40.090;18.348;2023-06-26T10:05:46;35.10;41.90
65582;DHT22;52231;40.090;18.348;2023-06-26T10:08:16;35.20;41.10
65582;DHT22;52231;40.090;18.348;2023-06-26T10:10:46;35.30;40.90
65582;DHT22;52231;40.090;18.348;2023-06-26T10:13:26;35.60;40.30
65582;DHT22;52231;40.090;18.348;2023-06-26T10:15:57;35.80;40.50
65582;DHT22;52231;40.090;18.348;2023-06-26T10:18:28;35.60;40.00
65582;DHT22;52231;40.090;18.348;2023-06-26T10:20:59;35.70;40.20
65582;DHT22;52231;40.090;18.348;2023-06-26T10:23:31;35.50;40.90
65582;DHT22;52231;40.090;18.348;2023-06-26T10:26:00;35.50;40.00
65582;DHT22;52231;40.090;18.348;2023-06-26T10:28:31;35.50;40.80
65582;DHT22;52231;40.090;18.348;2023-06-26T10:31:03;35.60;40.20
65582;DHT22;52231;40.090;18.348;2023-06-26T10:33:34;35.90;40.20
65582;DHT22;52231;40.090;18.348;2023-06-26T10:36:33;35.90;40.40
65582;DHT22;52231;40.090;18.348;2023-06-26T10:39:04;36.30;39.70
65582;DHT22;52231;40.090;18.348;2023-06-26T10:41:41;36.00;39.90
65582;DHT22;52231;40.090;18.348;2023-06-26T10:44:17;35.90;39.70
65582;DHT22;52231;40.090;18.348;2023-06-26T10:49:19;35.90;38.90
65582;DHT22;52231;40.090;18.348;2023-06-26T10:51:49;35.40;40.40
65582;DHT22;52231;40.090;18.348;2023-06-26T10:54:19;35.40;40.30
65582;DHT22;52231;40.090;18.348;2023-06-26T10:56:49;35.80;39.60
65582;DHT22;52231;40.090;18.348;2023-06-26T10:59:21;35.80;38.40
65582;DHT22;52231;40.090;18.348;2023-06-26T11:01:56;35.80;39.00
65582;DHT22;52231;40.090;18.348;2023-06-26T11:04:38;35.90;38.70
65582;DHT22;52231;40.090;18.348;2023-06-26T11:10:09;36.10;38.10
65582;DHT22;52231;40.090;18.348;2023-06-26T11:12:45;36.10;38.00
65582;DHT22;52231;40.090;18.348;2023-06-26T11:15:17;36.30;37.50
65582;DHT22;52231;40.090;18.348;2023-06-26T11:17:47;36.10;37.00
65582;DHT22;52231;40.090;18.348;2023-06-26T11:20:16;35.80;37.60
65582;DHT22;52231;40.090;18.348;2023-06-26T11:22:45;35.70;37.60
65582;DHT22;52231;40.090;18.348;2023-06-26T11:25:14;35.90;37.60
65582;DHT22;52231;40.090;18.348;2023-06-26T11:27:44;35.70;37.50
65582;DHT22;52231;40.090;18.348;2023-06-26T11:30:23;35.70;37.70
65582;DHT22;52231;40.090;18.348;2023-06-26T11:32:52;35.50;38.20
65582;DHT22;52231;40.090;18.348;2023-06-26T11:35:24;35.30;38.30
65582;DHT22;52231;40.090;18.348;2023-06-26T11:38:00;35.10;38.00
65582;DHT22;52231;40.090;18.348;2023-06-26T11:40:33;35.30;38.50
65582;DHT22;52231;40.090;18.348;2023-06-26T11:43:09;35.40;38.10
65582;DHT22;52231;40.090;18.348;2023-06-26T11:45:43;35.60;37.60
65582;DHT22;52231;40.090;18.348;2023-06-26T11:48:22;36.00;37.40
65582;DHT22;52231;40.090;18.348;2023-06-26T11:50:51;36.20;37.00
65582;DHT22;52231;40.090;18.348;2023-06-26T11:53:23;36.20;36.70
65582;DHT22;52231;40.090;18.348;2023-06-26T11:55:51;35.90;36.70
65582;DHT22;52231;40.090;18.348;2023-06-26T11:58:22;35.60;37.50
65582;DHT22;52231;40.090;18.348;2023-06-26T12:00:51;35.30;37.90
65582;DHT22;52231;40.090;18.348;2023-06-26T12:03:19;35.20;37.70
65582;DHT22;52231;40.090;18.348;2023-06-26T12:05:48;35.20;38.30
65582;DHT22;52231;40.090;18.348;2023-06-26T12:08:21;35.40;37.80
65582;DHT22;52231;40.090;18.348;2023-06-26T12:10:50;35.60;37.60
65582;DHT22;52231;40.090;18.348;2023-06-26T12:13:18;35.70;37.20
65582;DHT22;52231;40.090;18.348;2023-06-26T12:15:47;35.90;36.50
65582;DHT22;52231;40.090;18.348;2023-06-26T12:18:15;36.10;36.00
65582;DHT22;52231;40.090;18.348;2023-06-26T12:20:44;36.00;36.80
65582;DHT22;52231;40.090;18.348;2023-06-26T12:23:14;36.00;36.40
65582;DHT22;52231;40.090;18.348;2023-06-26T12:25:48;35.90;36.00
65582;DHT22;52231;40.090;18.348;2023-06-26T12:28:19;36.30;35.20
65582;DHT22;52231;40.090;18.348;2023-06-26T12:31:17;35.90;35.80
65582;DHT22;52231;40.090;18.348;2023-06-26T12:33:48;35.60;36.20
65582;DHT22;52231;40.090;18.348;2023-06-26T12:36:17;35.70;35.80
65582;DHT22;52231;40.090;18.348;2023-06-26T12:38:46;35.40;35.30
65582;DHT22;52231;40.090;18.348;2023-06-26T12:41:15;35.40;35.60
65582;DHT22;52231;40.090;18.348;2023-06-26T12:43:44;35.20;36.10
65582;DHT22;52231;40.090;18.348;2023-06-26T12:46:12;34.80;36.80
65582;DHT22;52231;40.090;18.348;2023-06-26T12:48:42;34.90;36.40
65582;DHT22;52231;40.090;18.348;2023-06-26T12:51:13;35.30;36.20
65582;DHT22;52231;40.090;18.348;2023-06-26T12:53:42;35.20;36.50
65582;DHT22;52231;40.090;18.348;2023-06-26T12:56:13;35.40;36.00
65582;DHT22;52231;40.090;18.348;2023-06-26T12:58:48;35.50;35.60
65582;DHT22;52231;40.090;18.348;2023-06-26T13:01:17;35.60;35.10
65582;DHT22;52231;40.090;18.348;2023-06-26T13:03:48;34.90;35.40
65582;DHT22;52231;40.090;18.348;2023-06-26T13:06:16;34.70;36.20
65582;DHT22;52231;40.090;18.348;2023-06-26T13:09:00;34.60;35.90
65582;DHT22;52231;40.090;18.348;2023-06-26T14:17:57;32.80;39.70
65582;DHT22;52231;40.090;18.348;2023-06-26T14:20:26;32.30;40.20
65582;DHT22;52231;40.090;18.348;2023-06-26T14:22:55;32.30;40.50
65582;DHT22;52231;40.090;18.348;2023-06-26T14:25:24;32.30;40.90
65582;DHT22;52231;40.090;18.348;2023-06-26T14:27:52;32.40;41.20
65582;DHT22;52231;40.090;18.348;2023-06-26T14:30:21;32.40;40.70
65582;DHT22;52231;40.090;18.348;2023-06-26T14:32:49;32.30;41.20
65582;DHT22;52231;40.090;18.348;2023-06-26T14:35:17;32.20;41.10
65582;DHT22;52231;40.090;18.348;2023-06-26T14:37:48;32.10;41.20
65582;DHT22;52231;40.090;18.348;2023-06-26T14:40:16;31.90;41.00
65582;DHT22;52231;40.090;18.348;2023-06-26T14:42:45;31.70;41.20
65582;DHT22;52231;40.090;18.348;2023-06-26T14:45:13;31.60;42.50
65582;DHT22;52231;40.090;18.348;2023-06-26T14:47:42;31.60;42.70
65582;DHT22;52231;40.090;18.348;2023-06-26T14:50:12;31.60;41.60
65582;DHT22;52231;40.090;18.348;2023-06-26T14:52:41;31.40;41.50
65582;DHT22;52231;40.090;18.348;2023-06-26T14:55:09;31.30;41.50
65582;DHT22;52231;40.090;18.348;2023-06-26T14:57:38;31.30;41.80
65582;DHT22;52231;40.090;18.348;2023-06-26T15:00:06;31.30;41.60
65582;DHT22;52231;40.090;18.348;2023-06-26T15:02:35;31.20;41.90
65582;DHT22;52231;40.090;18.348;2023-06-26T15:05:03;31.10;42.30
65582;DHT22;52231;40.090;18.348;2023-06-26T15:07:31;31.10;42.30
65582;DHT22;52231;40.090;18.348;2023-06-26T15:10:00;30.90;42.00
65582;DHT22;52231;40.090;18.348;2023-06-26T15:12:28;30.70;42.40
65582;DHT22;52231;40.090;18.348;2023-06-26T15:14:56;30.50;43.40
65582;DHT22;52231;40.090;18.348;2023-06-26T15:17:24;30.50;43.40
65582;DHT22;52231;40.090;18.348;2023-06-26T15:19:52;30.40;43.30
65582;DHT22;52231;40.090;18.348;2023-06-26T15:22:23;30.40;43.60
65582;DHT22;52231;40.090;18.348;2023-06-26T15:24:54;30.30;43.10
65582;DHT22;52231;40.090;18.348;2023-06-26T15:27:22;30.20;43.60
65582;DHT22;52231;40.090;18.348;2023-06-26T15:29:52;30.30;43.20
65582;DHT22;52231;40.090;18.348;2023-06-26T15:32:20;30.30;43.40
65582;DHT22;52231;40.090;18.348;2023-06-26T15:34:48;30.30;43.30
65582;DHT22;52231;40.090;18.348;2023-06-26T15:37:16;30.30;43.20
65582;DHT22;52231;40.090;18.348;2023-06-26T15:39:44;30.30;42.40
65582;DHT22;52231;40.090;18.348;2023-06-26T15:42:12;30.20;42.20
65582;DHT22;52231;40.090;18.348;2023-06-26T15:44:41;30.20;42.60
65582;DHT22;52231;40.090;18.348;2023-06-26T15:47:09;30.10;43.00
65582;DHT22;52231;40.090;18.348;2023-06-26T15:49:37;30.00;43.10
65582;DHT22;52231;40.090;18.348;2023-06-26T15:52:05;29.90;43.20
65582;DHT22;52231;40.090;18.348;2023-06-26T15:54:33;29.80;43.10
65582;DHT22;52231;40.090;18.348;2023-06-26T15:57:02;29.80;43.10
65582;DHT22;52231;40.090;18.348;2023-06-26T15:59:30;29.80;43.50
65582;DHT22;52231;40.090;18.348;2023-06-26T16:01:59;29.70;44.20
65582;DHT22;52231;40.090;18.348;2023-06-26T16:04:27;29.70;44.10
65582;DHT22;52231;40.090;18.348;2023-06-26T16:06:59;29.60;43.50
65582;DHT22;52231;40.090;18.348;2023-06-26T16:09:27;29.60;44.20
65582;DHT22;52231;40.090;18.348;2023-06-26T16:11:55;29.60;43.30
65582;DHT22;52231;40.090;18.348;2023-06-26T16:14:23;29.50;43.70
65582;DHT22;52231;40.090;18.348;2023-06-26T16:16:52;29.50;43.70
65582;DHT22;52231;40.090;18.348;2023-06-26T16:19:21;29.50;43.40
65582;DHT22;52231;40.090;18.348;2023-06-26T16:21:50;29.60;43.00
65582;DHT22;52231;40.090;18.348;2023-06-26T16:24:18;29.70;43.30
65582;DHT22;52231;40.090;18.348;2023-06-26T16:26:46;29.90;42.10
65582;DHT22;52231;40.090;18.348;2023-06-26T16:29:15;29.80;41.70
65582;DHT22;52231;40.090;18.348;2023-06-26T16:31:43;29.70;41.50
65582;DHT22;52231;40.090;18.348;2023-06-26T16:34:11;29.60;42.60
65582;DHT22;52231;40.090;18.348;2023-06-26T16:36:40;29.50;43.00
65582;DHT22;52231;40.090;18.348;2023-06-26T16:39:09;29.40;42.40
65582;DHT22;52231;40.090;18.348;2023-06-26T16:41:39;29.40;42.10
65582;DHT22;52231;40.090;18.348;2023-06-26T16:44:07;29.40;42.70
65582;DHT22;52231;40.090;18.348;2023-06-26T16:46:35;29.30;42.90
65582;DHT22;52231;40.090;18.348;2023-06-26T16:49:03;29.20;42.80